sensor_id;sensor_type;location;lat;lon;timestamp;pressure;altitude;pressure_sealevel;temperature
9985;BMP180;16737;50.932;6.780;2024-02-15T00:00:02;100480.00;;;17.00
9985;BMP180;16737;50.932;6.780;2024-02-15T00:02:30;100475.00;;;17.00
9985;BMP180;16737;50.932;6.780;2024-02-15T00:04:58;100485.00;;;17.00
9985;BMP180;16737;50.932;6.780;2024-02-15T00:07:27;100477.00;;;17.00
9985;BMP180;16737;50.932;6.780;2024-02-15T00:09:54;100479.00;;;17.00
9985;BMP180;16737;50.932;6.780;2024-02-15T00:12:22;100488.00;;;17.00
9985;BMP180;16737;50.932;6.780;2024-02-15T00:14:49;100481.00;;;17.00
9985;BMP180;16737;50.932;6.780;2024-02-15T00:17:17;100478.00;;;17.00
9985;BMP180;16737;50.932;6.780;2024-02-15T00:19:44;100476.00;;;17.00
9985;BMP180;16737;50.932;6.780;2024-02-15T00:22:14;100477.00;;;17.10
9985;BMP180;16737;50.932;6.780;2024-02-15T00:24:41;100477.00;;;17.10
9985;BMP180;16737;50.932;6.780;2024-02-15T00:27:10;100479.00;;;17.10
9985;BMP180;16737;50.932;6.780;2024-02-15T00:29:37;100473.00;;;17.10
9985;BMP180;16737;50.932;6.780;2024-02-15T00:32:06;100485.00;;;17.10
9985;BMP180;16737;50.932;6.780;2024-02-15T00:34:34;100476.00;;;17.10
9985;BMP180;16737;50.932;6.780;2024-02-15T00:37:02;100477.00;;;17.20
9985;BMP180;16737;50.932;6.780;2024-02-15T00:39:31;100478.00;;;17.20
9985;BMP180;16737;50.932;6.780;2024-02-15T00:41:58;100474.00;;;17.20
9985;BMP180;16737;50.932;6.780;2024-02-15T00:44:27;100476.00;;;17.20
9985;BMP180;16737;50.932;6.780;2024-02-15T00:46:55;100476.00;;;17.20
9985;BMP180;16737;50.932;6.780;2024-02-15T00:49:22;100476.00;;;17.20
9985;BMP180;16737;50.932;6.780;2024-02-15T00:51:52;100476.00;;;17.20
9985;BMP180;16737;50.932;6.780;2024-02-15T00:54:19;100481.00;;;17.30
9985;BMP180;16737;50.932;6.780;2024-02-15T00:56:50;100485.00;;;17.30
9985;BMP180;16737;50.932;6.780;2024-02-15T00:59:18;100478.00;;;17.30
9985;BMP180;16737;50.932;6.780;2024-02-15T01:01:46;100483.00;;;17.30
9985;BMP180;16737;50.932;6.780;2024-02-15T01:04:14;100482.00;;;17.30
9985;BMP180;16737;50.932;6.780;2024-02-15T01:06:42;100478.00;;;17.30
9985;BMP180;16737;50.932;6.780;2024-02-15T01:09:09;100466.00;;;17.30
9985;BMP180;16737;50.932;6.780;2024-02-15T01:11:37;100471.00;;;17.30
9985;BMP180;16737;50.932;6.780;2024-02-15T01:14:06;100466.00;;;17.20
9985;BMP180;16737;50.932;6.780;2024-02-15T01:16:36;100467.00;;;17.20
9985;BMP180;16737;50.932;6.780;2024-02-15T01:19:03;100471.00;;;17.20
9985;BMP180;16737;50.932;6.780;2024-02-15T01:21:31;100468.00;;;17.20
9985;BMP180;16737;50.932;6.780;2024-02-15T01:23:59;100467.00;;;17.20
9985;BMP180;16737;50.932;6.780;2024-02-15T01:26:30;100470.00;;;17.20
9985;BMP180;16737;50.932;6.780;2024-02-15T01:28:58;100476.00;;;17.20
9985;BMP180;16737;50.932;6.780;2024-02-15T01:31:27;100471.00;;;17.20
9985;BMP180;16737;50.932;6.780;2024-02-15T01:33:54;100467.00;;;17.20
9985;BMP180;16737;50.932;6.780;2024-02-15T01:36:22;100472.00;;;17.20
9985;BMP180;16737;50.932;6.780;2024-02-15T01:38:49;100476.00;;;17.20
9985;BMP180;16737;50.932;6.780;2024-02-15T01:41:17;100469.00;;;17.20
9985;BMP180;16737;50.932;6.780;2024-02-15T01:43:44;100472.00;;;17.20
9985;BMP180;16737;50.932;6.780;2024-02-15T01:46:15;100462.00;;;17.20
9985;BMP180;16737;50.932;6.780;2024-02-15T01:48:44;100469.00;;;17.20
9985;BMP180;16737;50.932;6.780;2024-02-15T01:51:13;100454.00;;;17.20
9985;BMP180;16737;50.932;6.780;2024-02-15T01:53:43;100462.00;;;17.20
9985;BMP180;16737;50.932;6.780;2024-02-15T01:56:13;100467.00;;;17.10
9985;BMP180;16737;50.932;6.780;2024-02-15T01:58:41;100462.00;;;17.10
9985;BMP180;16737;50.932;6.780;2024-02-15T02:01:10;100461.00;;;17.10
9985;BMP180;16737;50.932;6.780;2024-02-15T02:03:39;100456.00;;;17.10
9985;BMP180;16737;50.932;6.780;2024-02-15T02:06:09;100450.00;;;17.00
9985;BMP180;16737;50.932;6.780;2024-02-15T02:08:36;100457.00;;;17.00
9985;BMP180;16737;50.932;6.780;2024-02-15T02:11:04;100443.00;;;17.00
9985;BMP180;16737;50.932;6.780;2024-02-15T02:13:31;100445.00;;;17.00
9985;BMP180;16737;50.932;6.780;2024-02-15T02:15:59;100437.00;;;16.90
9985;BMP180;16737;50.932;6.780;2024-02-15T02:18:27;100441.00;;;16.90
9985;BMP180;16737;50.932;6.780;2024-02-15T02:20:54;100441.00;;;16.90
9985;BMP180;16737;50.932;6.780;2024-02-15T02:23:26;100429.00;;;16.80
9985;BMP180;16737;50.932;6.780;2024-02-15T02:25:59;100432.00;;;16.80
9985;BMP180;16737;50.932;6.780;2024-02-15T02:28:27;100428.00;;;16.80
9985;BMP180;16737;50.932;6.780;2024-02-15T02:30:55;100430.00;;;16.80
9985;BMP180;16737;50.932;6.780;2024-02-15T02:33:22;100421.00;;;16.80
9985;BMP180;16737;50.932;6.780;2024-02-15T02:35:54;100408.00;;;16.80
9985;BMP180;16737;50.932;6.780;2024-02-15T02:38:23;100409.00;;;16.80
9985;BMP180;16737;50.932;6.780;2024-02-15T02:40:52;100407.00;;;16.80
9985;BMP180;16737;50.932;6.780;2024-02-15T02:43:21;100408.00;;;16.80
9985;BMP180;16737;50.932;6.780;2024-02-15T02:45:48;100406.00;;;16.80
9985;BMP180;16737;50.932;6.780;2024-02-15T02:48:16;100402.00;;;16.80
9985;BMP180;16737;50.932;6.780;2024-02-15T02:50:44;100399.00;;;16.80
9985;BMP180;16737;50.932;6.780;2024-02-15T02:53:11;100394.00;;;16.80
9985;BMP180;16737;50.932;6.780;2024-02-15T02:55:40;100402.00;;;16.80
9985;BMP180;16737;50.932;6.780;2024-02-15T02:58:07;100396.00;;;16.80
9985;BMP180;16737;50.932;6.780;2024-02-15T03:00:36;100389.00;;;16.80
9985;BMP180;16737;50.932;6.780;2024-02-15T03:03:06;100394.00;;;16.90
9985;BMP180;16737;50.932;6.780;2024-02-15T03:05:33;100384.00;;;16.90
9985;BMP180;16737;50.932;6.780;2024-02-15T03:08:01;100393.00;;;16.90
9985;BMP180;16737;50.932;6.780;2024-02-15T03:10:29;100395.00;;;16.90
9985;BMP180;16737;50.932;6.780;2024-02-15T03:12:56;100394.00;;;16.90
9985;BMP180;16737;50.932;6.780;2024-02-15T03:15:24;100392.00;;;17.00
9985;BMP180;16737;50.932;6.780;2024-02-15T03:17:52;100391.00;;;17.00
9985;BMP180;16737;50.932;6.780;2024-02-15T03:20:20;100389.00;;;17.00
9985;BMP180;16737;50.932;6.780;2024-02-15T03:22:52;100386.00;;;17.00
9985;BMP180;16737;50.932;6.780;2024-02-15T03:25:20;100384.00;;;17.00
9985;BMP180;16737;50.932;6.780;2024-02-15T03:27:49;100380.00;;;16.90
9985;BMP180;16737;50.932;6.780;2024-02-15T03:30:18;100379.00;;;16.90
9985;BMP180;16737;50.932;6.780;2024-02-15T03:32:46;100382.00;;;16.90
9985;BMP180;16737;50.932;6.780;2024-02-15T03:35:16;100373.00;;;16.90
9985;BMP180;16737;50.932;6.780;2024-02-15T03:37:44;100376.00;;;16.90
9985;BMP180;16737;50.932;6.780;2024-02-15T03:40:12;100376.00;;;16.80
9985;BMP180;16737;50.932;6.780;2024-02-15T03:42:40;100374.00;;;16.80
9985;BMP180;16737;50.932;6.780;2024-02-15T03:45:08;100378.00;;;16.80
9985;BMP180;16737;50.932;6.780;2024-02-15T03:47:37;100381.00;;;16.70
9985;BMP180;16737;50.932;6.780;2024-02-15T03:50:05;100372.00;;;16.70
9985;BMP180;16737;50.932;6.780;2024-02-15T03:52:37;100373.00;;;16.70
9985;BMP180;16737;50.932;6.780;2024-02-15T03:55:06;100387.00;;;16.70
9985;BMP180;16737;50.932;6.780;2024-02-15T03:57:34;100377.00;;;16.70
9985;BMP180;16737;50.932;6.780;2024-02-15T04:00:02;100380.00;;;16.70
9985;BMP180;16737;50.932;6.780;2024-02-15T04:02:30;100376.00;;;16.70
9985;BMP180;16737;50.932;6.780;2024-02-15T04:04:58;100378.00;;;16.70
9985;BMP180;16737;50.932;6.780;2024-02-15T04:07:25;100379.00;;;16.70
9985;BMP180;16737;50.932;6.780;2024-02-15T04:09:54;100380.00;;;16.60
9985;BMP180;16737;50.932;6.780;2024-02-15T04:12:22;100378.00;;;16.60
9985;BMP180;16737;50.932;6.780;2024-02-15T04:14:49;100378.00;;;16.70
9985;BMP180;16737;50.932;6.780;2024-02-15T04:17:17;100376.00;;;16.70
9985;BMP180;16737;50.932;6.780;2024-02-15T04:19:48;100374.00;;;16.70
9985;BMP180;16737;50.932;6.780;2024-02-15T04:22:17;100376.00;;;16.70
9985;BMP180;16737;50.932;6.780;2024-02-15T04:24:45;100372.00;;;16.70
9985;BMP180;16737;50.932;6.780;2024-02-15T04:27:14;100369.00;;;16.70
9985;BMP180;16737;50.932;6.780;2024-02-15T04:29:41;100372.00;;;16.70
9985;BMP180;16737;50.932;6.780;2024-02-15T04:32:10;100377.00;;;16.70
9985;BMP180;16737;50.932;6.780;2024-02-15T04:34:38;100385.00;;;16.70
9985;BMP180;16737;50.932;6.780;2024-02-15T04:37:06;100378.00;;;16.70
9985;BMP180;16737;50.932;6.780;2024-02-15T04:39:34;100379.00;;;16.70
9985;BMP180;16737;50.932;6.780;2024-02-15T04:42:02;100384.00;;;16.70
9985;BMP180;16737;50.932;6.780;2024-02-15T04:44:32;100376.00;;;16.70
9985;BMP180;16737;50.932;6.780;2024-02-15T04:47:01;100379.00;;;16.70
9985;BMP180;16737;50.932;6.780;2024-02-15T04:49:30;100372.00;;;16.70
9985;BMP180;16737;50.932;6.780;2024-02-15T04:51:57;100368.00;;;16.70
9985;BMP180;16737;50.932;6.780;2024-02-15T04:54:25;100378.00;;;16.70
9985;BMP180;16737;50.932;6.780;2024-02-15T04:56:52;100379.00;;;16.70
9985;BMP180;16737;50.932;6.780;2024-02-15T04:59:21;100382.00;;;16.70
9985;BMP180;16737;50.932;6.780;2024-02-15T05:01:53;100371.00;;;16.70
9985;BMP180;16737;50.932;6.780;2024-02-15T05:04:22;100367.00;;;16.70
9985;BMP180;16737;50.932;6.780;2024-02-15T05:06:50;100363.00;;;16.70
9985;BMP180;16737;50.932;6.780;2024-02-15T05:09:18;100369.00;;;16.70
9985;BMP180;16737;50.932;6.780;2024-02-15T05:11:46;100369.00;;;16.70
9985;BMP180;16737;50.932;6.780;2024-02-15T05:14:14;100359.00;;;16.70
9985;BMP180;16737;50.932;6.780;2024-02-15T05:16:45;100358.00;;;16.70
9985;BMP180;16737;50.932;6.780;2024-02-15T05:19:15;100352.00;;;16.70
9985;BMP180;16737;50.932;6.780;2024-02-15T05:21:43;100356.00;;;16.70
9985;BMP180;16737;50.932;6.780;2024-02-15T05:24:13;100346.00;;;16.70
9985;BMP180;16737;50.932;6.780;2024-02-15T05:26:41;100356.00;;;16.70
9985;BMP180;16737;50.932;6.780;2024-02-15T05:29:10;100347.00;;;16.70
9985;BMP180;16737;50.932;6.780;2024-02-15T05:31:38;100353.00;;;16.70
9985;BMP180;16737;50.932;6.780;2024-02-15T05:34:07;100349.00;;;16.70
9985;BMP180;16737;50.932;6.780;2024-02-15T05:36:39;100361.00;;;16.70
9985;BMP180;16737;50.932;6.780;2024-02-15T05:39:06;100348.00;;;16.70
9985;BMP180;16737;50.932;6.780;2024-02-15T05:41:37;100361.00;;;16.70
9985;BMP180;16737;50.932;6.780;2024-02-15T05:44:06;100350.00;;;16.70
9985;BMP180;16737;50.932;6.780;2024-02-15T05:46:34;100362.00;;;16.70
9985;BMP180;16737;50.932;6.780;2024-02-15T05:49:03;100348.00;;;16.70
9985;BMP180;16737;50.932;6.780;2024-02-15T05:51:32;100347.00;;;16.70
9985;BMP180;16737;50.932;6.780;2024-02-15T05:54:01;100342.00;;;16.70
9985;BMP180;16737;50.932;6.780;2024-02-15T05:56:29;100350.00;;;16.70
9985;BMP180;16737;50.932;6.780;2024-02-15T05:58:56;100338.00;;;16.70
9985;BMP180;16737;50.932;6.780;2024-02-15T06:01:24;100341.00;;;16.70
9985;BMP180;16737;50.932;6.780;2024-02-15T06:03:51;100351.00;;;16.70
9985;BMP180;16737;50.932;6.780;2024-02-15T06:06:21;100343.00;;;16.70
9985;BMP180;16737;50.932;6.780;2024-02-15T06:08:49;100343.00;;;16.70
9985;BMP180;16737;50.932;6.780;2024-02-15T06:11:20;100337.00;;;16.70
9985;BMP180;16737;50.932;6.780;2024-02-15T06:13:48;100333.00;;;16.70
9985;BMP180;16737;50.932;6.780;2024-02-15T06:16:16;100331.00;;;16.70
9985;BMP180;16737;50.932;6.780;2024-02-15T06:18:44;100331.00;;;16.70
9985;BMP180;16737;50.932;6.780;2024-02-15T06:21:11;100333.00;;;16.70
9985;BMP180;16737;50.932;6.780;2024-02-15T06:23:39;100332.00;;;16.70
9985;BMP180;16737;50.932;6.780;2024-02-15T06:26:06;100335.00;;;16.70
9985;BMP180;16737;50.932;6.780;2024-02-15T06:28:35;100342.00;;;16.70
9985;BMP180;16737;50.932;6.780;2024-02-15T06:31:19;100341.00;;;16.70
9985;BMP180;16737;50.932;6.780;2024-02-15T06:34:04;100335.00;;;16.60
9985;BMP180;16737;50.932;6.780;2024-02-15T06:36:50;100336.00;;;16.60
9985;BMP180;16737;50.932;6.780;2024-02-15T06:39:35;100335.00;;;16.60
9985;BMP180;16737;50.932;6.780;2024-02-15T06:42:07;100338.00;;;16.60
9985;BMP180;16737;50.932;6.780;2024-02-15T06:44:36;100341.00;;;16.60
9985;BMP180;16737;50.932;6.780;2024-02-15T06:47:06;100337.00;;;16.50
9985;BMP180;16737;50.932;6.780;2024-02-15T06:49:36;100347.00;;;16.50
9985;BMP180;16737;50.932;6.780;2024-02-15T06:52:06;100353.00;;;16.50
9985;BMP180;16737;50.932;6.780;2024-02-15T06:54:34;100342.00;;;16.50
9985;BMP180;16737;50.932;6.780;2024-02-15T06:57:03;100338.00;;;16.50
9985;BMP180;16737;50.932;6.780;2024-02-15T06:59:31;100350.00;;;16.50
9985;BMP180;16737;50.932;6.780;2024-02-15T07:02:00;100340.00;;;16.50
9985;BMP180;16737;50.932;6.780;2024-02-15T07:04:31;100344.00;;;16.50
9985;BMP180;16737;50.932;6.780;2024-02-15T07:06:59;100345.00;;;16.50
9985;BMP180;16737;50.932;6.780;2024-02-15T07:09:28;100335.00;;;16.40
9985;BMP180;16737;50.932;6.780;2024-02-15T07:11:56;100347.00;;;16.40
9985;BMP180;16737;50.932;6.780;2024-02-15T07:14:23;100342.00;;;16.40
9985;BMP180;16737;50.932;6.780;2024-02-15T07:16:51;100348.00;;;16.40
9985;BMP180;16737;50.932;6.780;2024-02-15T07:19:24;100346.00;;;16.40
9985;BMP180;16737;50.932;6.780;2024-02-15T07:21:52;100350.00;;;16.40
9985;BMP180;16737;50.932;6.780;2024-02-15T07:24:19;100345.00;;;16.40
9985;BMP180;16737;50.932;6.780;2024-02-15T07:26:47;100345.00;;;16.50
9985;BMP180;16737;50.932;6.780;2024-02-15T07:29:14;100354.00;;;16.50
9985;BMP180;16737;50.932;6.780;2024-02-15T07:31:42;100350.00;;;16.50
9985;BMP180;16737;50.932;6.780;2024-02-15T07:34:09;100348.00;;;16.50
9985;BMP180;16737;50.932;6.780;2024-02-15T07:36:39;100350.00;;;16.50
9985;BMP180;16737;50.932;6.780;2024-02-15T07:39:08;100344.00;;;16.50
9985;BMP180;16737;50.932;6.780;2024-02-15T07:41:38;100343.00;;;16.50
9985;BMP180;16737;50.932;6.780;2024-02-15T07:44:06;100340.00;;;16.40
9985;BMP180;16737;50.932;6.780;2024-02-15T07:46:34;100350.00;;;16.40
9985;BMP180;16737;50.932;6.780;2024-02-15T07:49:03;100344.00;;;16.40
9985;BMP180;16737;50.932;6.780;2024-02-15T07:51:31;100342.00;;;16.40
9985;BMP180;16737;50.932;6.780;2024-02-15T07:54:00;100343.00;;;16.40
9985;BMP180;16737;50.932;6.780;2024-02-15T07:56:28;100347.00;;;16.50
9985;BMP180;16737;50.932;6.780;2024-02-15T07:58:55;100353.00;;;16.50
9985;BMP180;16737;50.932;6.780;2024-02-15T08:01:23;100356.00;;;16.50
9985;BMP180;16737;50.932;6.780;2024-02-15T08:03:51;100352.00;;;16.50
9985;BMP180;16737;50.932;6.780;2024-02-15T08:06:19;100359.00;;;16.50
9985;BMP180;16737;50.932;6.780;2024-02-15T08:08:47;100349.00;;;16.50
9985;BMP180;16737;50.932;6.780;2024-02-15T08:11:19;100348.00;;;16.50
9985;BMP180;16737;50.932;6.780;2024-02-15T08:13:47;100345.00;;;16.50
9985;BMP180;16737;50.932;6.780;2024-02-15T08:16:15;100354.00;;;16.60
9985;BMP180;16737;50.932;6.780;2024-02-15T08:18:43;100351.00;;;16.60
9985;BMP180;16737;50.932;6.780;2024-02-15T08:21:12;100347.00;;;16.60
9985;BMP180;16737;50.932;6.780;2024-02-15T08:23:40;100345.00;;;16.60
9985;BMP180;16737;50.932;6.780;2024-02-15T08:26:07;100330.00;;;16.60
9985;BMP180;16737;50.932;6.780;2024-02-15T08:28:38;100325.00;;;16.60
9985;BMP180;16737;50.932;6.780;2024-02-15T08:31:05;100326.00;;;16.60
9985;BMP180;16737;50.932;6.780;2024-02-15T08:33:34;100325.00;;;16.60
9985;BMP180;16737;50.932;6.780;2024-02-15T08:36:02;100311.00;;;16.60
9985;BMP180;16737;50.932;6.780;2024-02-15T08:38:29;100312.00;;;16.60
9985;BMP180;16737;50.932;6.780;2024-02-15T08:40:57;100316.00;;;16.60
9985;BMP180;16737;50.932;6.780;2024-02-15T08:43:24;100311.00;;;16.60
9985;BMP180;16737;50.932;6.780;2024-02-15T08:45:53;100308.00;;;16.60
9985;BMP180;16737;50.932;6.780;2024-02-15T08:48:21;100322.00;;;16.60
9985;BMP180;16737;50.932;6.780;2024-02-15T08:50:49;100309.00;;;16.60
9985;BMP180;16737;50.932;6.780;2024-02-15T08:53:16;100311.00;;;16.70
9985;BMP180;16737;50.932;6.780;2024-02-15T08:55:45;100304.00;;;16.70
9985;BMP180;16737;50.932;6.780;2024-02-15T08:58:13;100306.00;;;16.70
9985;BMP180;16737;50.932;6.780;2024-02-15T09:00:40;100305.00;;;16.70
9985;BMP180;16737;50.932;6.780;2024-02-15T09:03:12;100299.00;;;16.80
9985;BMP180;16737;50.932;6.780;2024-02-15T09:05:40;100300.00;;;16.80
9985;BMP180;16737;50.932;6.780;2024-02-15T09:08:08;100302.00;;;16.80
9985;BMP180;16737;50.932;6.780;2024-02-15T09:10:35;100292.00;;;16.90
9985;BMP180;16737;50.932;6.780;2024-02-15T09:13:05;100301.00;;;16.90
9985;BMP180;16737;50.932;6.780;2024-02-15T09:15:33;100294.00;;;17.00
9985;BMP180;16737;50.932;6.780;2024-02-15T09:18:01;100295.00;;;17.00
9985;BMP180;16737;50.932;6.780;2024-02-15T09:20:30;100303.00;;;17.10
9985;BMP180;16737;50.932;6.780;2024-02-15T09:22:59;100302.00;;;17.10
9985;BMP180;16737;50.932;6.780;2024-02-15T09:25:30;100306.00;;;17.20
9985;BMP180;16737;50.932;6.780;2024-02-15T09:27:58;100295.00;;;17.20
9985;BMP180;16737;50.932;6.780;2024-02-15T09:30:25;100299.00;;;17.30
9985;BMP180;16737;50.932;6.780;2024-02-15T09:32:54;100308.00;;;17.30
9985;BMP180;16737;50.932;6.780;2024-02-15T09:35:22;100317.00;;;17.30
9985;BMP180;16737;50.932;6.780;2024-02-15T09:37:51;100304.00;;;17.40
9985;BMP180;16737;50.932;6.780;2024-02-15T09:40:21;100317.00;;;17.40
9985;BMP180;16737;50.932;6.780;2024-02-15T09:42:53;100322.00;;;17.50
9985;BMP180;16737;50.932;6.780;2024-02-15T09:45:20;100317.00;;;17.60
9985;BMP180;16737;50.932;6.780;2024-02-15T09:47:50;100309.00;;;17.60
9985;BMP180;16737;50.932;6.780;2024-02-15T09:50:19;100320.00;;;17.70
9985;BMP180;16737;50.932;6.780;2024-02-15T09:52:49;100314.00;;;17.70
9985;BMP180;16737;50.932;6.780;2024-02-15T09:55:18;100316.00;;;17.80
9985;BMP180;16737;50.932;6.780;2024-02-15T09:57:47;100307.00;;;17.80
9985;BMP180;16737;50.932;6.780;2024-02-15T10:00:15;100298.00;;;17.90
9985;BMP180;16737;50.932;6.780;2024-02-15T10:02:44;100303.00;;;17.90
9985;BMP180;16737;50.932;6.780;2024-02-15T10:05:12;100301.00;;;18.00
9985;BMP180;16737;50.932;6.780;2024-02-15T10:07:40;100303.00;;;18.00
9985;BMP180;16737;50.932;6.780;2024-02-15T10:10:17;100307.00;;;18.00
9985;BMP180;16737;50.932;6.780;2024-02-15T10:12:46;100310.00;;;18.10
9985;BMP180;16737;50.932;6.780;2024-02-15T10:15:32;100306.00;;;18.10
9985;BMP180;16737;50.932;6.780;2024-02-15T10:18:02;100307.00;;;18.20
9985;BMP180;16737;50.932;6.780;2024-02-15T10:20:30;100304.00;;;18.20
9985;BMP180;16737;50.932;6.780;2024-02-15T10:23:10;100309.00;;;18.20
9985;BMP180;16737;50.932;6.780;2024-02-15T10:25:40;100307.00;;;18.30
9985;BMP180;16737;50.932;6.780;2024-02-15T10:28:08;100309.00;;;18.40
9985;BMP180;16737;50.932;6.780;2024-02-15T10:30:36;100316.00;;;18.40
9985;BMP180;16737;50.932;6.780;2024-02-15T10:33:05;100303.00;;;18.50
9985;BMP180;16737;50.932;6.780;2024-02-15T10:35:33;100301.00;;;18.50
9985;BMP180;16737;50.932;6.780;2024-02-15T10:38:08;100295.00;;;18.50
9985;BMP180;16737;50.932;6.780;2024-02-15T10:40:38;100301.00;;;18.60
9985;BMP180;16737;50.932;6.780;2024-02-15T10:43:09;100295.00;;;18.60
9985;BMP180;16737;50.932;6.780;2024-02-15T10:45:39;100294.00;;;18.70
9985;BMP180;16737;50.932;6.780;2024-02-15T10:48:08;100299.00;;;18.70
9985;BMP180;16737;50.932;6.780;2024-02-15T10:50:36;100301.00;;;18.80
9985;BMP180;16737;50.932;6.780;2024-02-15T10:53:10;100289.00;;;18.80
9985;BMP180;16737;50.932;6.780;2024-02-15T10:55:52;100292.00;;;18.90
9985;BMP180;16737;50.932;6.780;2024-02-15T10:58:20;100288.00;;;18.90
9985;BMP180;16737;50.932;6.780;2024-02-15T11:00:51;100286.00;;;19.00
9985;BMP180;16737;50.932;6.780;2024-02-15T11:03:24;100286.00;;;19.00
9985;BMP180;16737;50.932;6.780;2024-02-15T11:05:53;100286.00;;;19.00
9985;BMP180;16737;50.932;6.780;2024-02-15T11:08:23;100277.00;;;19.10
9985;BMP180;16737;50.932;6.780;2024-02-15T11:10:52;100274.00;;;19.10
9985;BMP180;16737;50.932;6.780;2024-02-15T11:13:21;100277.00;;;19.20
9985;BMP180;16737;50.932;6.780;2024-02-15T11:15:48;100278.00;;;19.20
9985;BMP180;16737;50.932;6.780;2024-02-15T11:18:41;100286.00;;;19.30
9985;BMP180;16737;50.932;6.780;2024-02-15T11:21:09;100271.00;;;19.30
9985;BMP180;16737;50.932;6.780;2024-02-15T11:23:36;100273.00;;;19.40
9985;BMP180;16737;50.932;6.780;2024-02-15T11:28:53;100270.00;;;19.50
9985;BMP180;16737;50.932;6.780;2024-02-15T11:31:52;100264.00;;;19.60
9985;BMP180;16737;50.932;6.780;2024-02-15T11:34:44;100256.00;;;19.60
9985;BMP180;16737;50.932;6.780;2024-02-15T11:37:50;100264.00;;;19.70
9985;BMP180;16737;50.932;6.780;2024-02-15T11:40:20;100257.00;;;19.80
9985;BMP180;16737;50.932;6.780;2024-02-15T11:42:51;100247.00;;;19.90
9985;BMP180;16737;50.932;6.780;2024-02-15T11:45:20;100252.00;;;20.00
9985;BMP180;16737;50.932;6.780;2024-02-15T11:47:49;100252.00;;;20.10
9985;BMP180;16737;50.932;6.780;2024-02-15T11:50:18;100247.00;;;20.10
9985;BMP180;16737;50.932;6.780;2024-02-15T11:52:47;100240.00;;;20.20
9985;BMP180;16737;50.932;6.780;2024-02-15T11:55:17;100238.00;;;20.30
9985;BMP180;16737;50.932;6.780;2024-02-15T11:57:56;100237.00;;;20.30
9985;BMP180;16737;50.932;6.780;2024-02-15T12:00:29;100242.00;;;20.40
9985;BMP180;16737;50.932;6.780;2024-02-15T12:03:14;100235.00;;;20.40
9985;BMP180;16737;50.932;6.780;2024-02-15T12:06:00;100236.00;;;20.50
9985;BMP180;16737;50.932;6.780;2024-02-15T12:08:45;100240.00;;;20.50
9985;BMP180;16737;50.932;6.780;2024-02-15T12:11:30;100227.00;;;20.50
9985;BMP180;16737;50.932;6.780;2024-02-15T12:14:17;100229.00;;;20.30
9985;BMP180;16737;50.932;6.780;2024-02-15T12:17:03;100224.00;;;20.60
9985;BMP180;16737;50.932;6.780;2024-02-15T12:19:49;100223.00;;;20.60
9985;BMP180;16737;50.932;6.780;2024-02-15T12:22:19;100217.00;;;20.60
9985;BMP180;16737;50.932;6.780;2024-02-15T12:24:54;100210.00;;;20.60
9985;BMP180;16737;50.932;6.780;2024-02-15T12:27:22;100215.00;;;20.70
9985;BMP180;16737;50.932;6.780;2024-02-15T12:29:55;100200.00;;;20.70
9985;BMP180;16737;50.932;6.780;2024-02-15T12:32:23;100198.00;;;20.70
9985;BMP180;16737;50.932;6.780;2024-02-15T12:34:51;100192.00;;;20.70
9985;BMP180;16737;50.932;6.780;2024-02-15T12:37:19;100193.00;;;20.70
9985;BMP180;16737;50.932;6.780;2024-02-15T12:39:48;100194.00;;;20.80
9985;BMP180;16737;50.932;6.780;2024-02-15T12:42:16;100190.00;;;20.80
9985;BMP180;16737;50.932;6.780;2024-02-15T12:44:45;100189.00;;;20.80
9985;BMP180;16737;50.932;6.780;2024-02-15T12:47:21;100184.00;;;20.80
9985;BMP180;16737;50.932;6.780;2024-02-15T12:49:49;100171.00;;;20.80
9985;BMP180;16737;50.932;6.780;2024-02-15T12:52:34;100180.00;;;20.80
9985;BMP180;16737;50.932;6.780;2024-02-15T12:55:13;100168.00;;;20.80
9985;BMP180;16737;50.932;6.780;2024-02-15T12:57:41;100163.00;;;20.80
9985;BMP180;16737;50.932;6.780;2024-02-15T13:00:12;100162.00;;;20.90
9985;BMP180;16737;50.932;6.780;2024-02-15T13:02:45;100151.00;;;20.90
9985;BMP180;16737;50.932;6.780;2024-02-15T13:05:15;100155.00;;;20.90
9985;BMP180;16737;50.932;6.780;2024-02-15T13:07:45;100150.00;;;20.90
9985;BMP180;16737;50.932;6.780;2024-02-15T13:10:12;100154.00;;;20.90
9985;BMP180;16737;50.932;6.780;2024-02-15T13:12:41;100148.00;;;20.80
9985;BMP180;16737;50.932;6.780;2024-02-15T13:15:10;100149.00;;;20.80
9985;BMP180;16737;50.932;6.780;2024-02-15T13:17:44;100141.00;;;20.80
9985;BMP180;16737;50.932;6.780;2024-02-15T13:20:13;100143.00;;;20.80
9985;BMP180;16737;50.932;6.780;2024-02-15T13:22:41;100131.00;;;20.80
9985;BMP180;16737;50.932;6.780;2024-02-15T13:25:10;100135.00;;;20.80
9985;BMP180;16737;50.932;6.780;2024-02-15T13:27:38;100127.00;;;20.80
9985;BMP180;16737;50.932;6.780;2024-02-15T13:30:06;100127.00;;;20.80
9985;BMP180;16737;50.932;6.780;2024-02-15T13:32:35;100124.00;;;20.80
9985;BMP180;16737;50.932;6.780;2024-02-15T13:35:07;100124.00;;;20.80
9985;BMP180;16737;50.932;6.780;2024-02-15T13:37:40;100114.00;;;20.80
9985;BMP180;16737;50.932;6.780;2024-02-15T13:40:10;100100.00;;;20.80
9985;BMP180;16737;50.932;6.780;2024-02-15T13:42:42;100095.00;;;20.80
9985;BMP180;16737;50.932;6.780;2024-02-15T13:45:15;100088.00;;;20.90
9985;BMP180;16737;50.932;6.780;2024-02-15T13:47:45;100086.00;;;20.90
9985;BMP180;16737;50.932;6.780;2024-02-15T13:50:15;100104.00;;;20.90
9985;BMP180;16737;50.932;6.780;2024-02-15T13:52:43;100096.00;;;21.00
9985;BMP180;16737;50.932;6.780;2024-02-15T13:55:12;100081.00;;;21.00
9985;BMP180;16737;50.932;6.780;2024-02-15T13:57:40;100084.00;;;21.00
9985;BMP180;16737;50.932;6.780;2024-02-15T14:00:09;100082.00;;;21.00
9985;BMP180;16737;50.932;6.780;2024-02-15T14:02:41;100079.00;;;21.00
9985;BMP180;16737;50.932;6.780;2024-02-15T14:05:09;100069.00;;;21.00
9985;BMP180;16737;50.932;6.780;2024-02-15T14:07:39;100074.00;;;20.90
9985;BMP180;16737;50.932;6.780;2024-02-15T14:10:07;100070.00;;;20.90
9985;BMP180;16737;50.932;6.780;2024-02-15T14:12:36;100062.00;;;20.90
9985;BMP180;16737;50.932;6.780;2024-02-15T14:15:05;100063.00;;;20.90
9985;BMP180;16737;50.932;6.780;2024-02-15T14:17:33;100061.00;;;21.00
9985;BMP180;16737;50.932;6.780;2024-02-15T14:20:01;100060.00;;;21.00
9985;BMP180;16737;50.932;6.780;2024-02-15T14:22:30;100057.00;;;21.00
9985;BMP180;16737;50.932;6.780;2024-02-15T14:24:59;100057.00;;;21.00